TAFS

Station TAF
VRMM
VRMM 032300Z 0400/0506 25007KT 9999 FEW018TCU TEMPO 0400/0406 FEW018CB=
VRMH
VRMH 032300Z 0400/0506 27007KT 9999 FEW018TCU TEMPO 0400/0406 FEW018CB=
VRMK
VRMK 032300Z 0400/0424 15005KT 9999 FEW018TCU TEMPO 0400/0406 FEW018CB =
VRMT
VRMT 032300Z 0400/0424 14005KT 9999 FEW018TCU TEMPO 0400/0406 FEW018CB=
VRMG
VRMG 032300Z 0400/0506 15008KT 9999 FEW018TCU SCT120 TEMPO 0400/0406 5000 TSRA FEW018CB=